sensor_id;sensor_type;location;lat;lon;timestamp;P1;durP1;ratioP1;P2;durP2;ratioP2
44426;SDS011;30133;47.866;-4.222;2023-05-14T00:01:17;8.05;;;4.57;;
44426;SDS011;30133;47.866;-4.222;2023-05-14T00:03:43;5.75;;;4.28;;
44426;SDS011;30133;47.866;-4.222;2023-05-14T00:06:10;5.00;;;4.07;;
44426;SDS011;30133;47.866;-4.222;2023-05-14T00:08:36;5.50;;;4.00;;
44426;SDS011;30133;47.866;-4.222;2023-05-14T00:11:02;5.70;;;4.47;;
44426;SDS011;30133;47.866;-4.222;2023-05-14T00:13:29;6.73;;;4.40;;
44426;SDS011;30133;47.866;-4.222;2023-05-14T00:15:55;6.25;;;3.95;;
44426;SDS011;30133;47.866;-4.222;2023-05-14T00:18:21;8.13;;;4.22;;
44426;SDS011;30133;47.866;-4.222;2023-05-14T00:20:48;7.10;;;4.72;;
44426;SDS011;30133;47.866;-4.222;2023-05-14T00:23:18;6.43;;;4.97;;
44426;SDS011;30133;47.866;-4.222;2023-05-14T00:25:45;7.18;;;4.55;;
44426;SDS011;30133;47.866;-4.222;2023-05-14T00:28:11;6.65;;;4.40;;
44426;SDS011;30133;47.866;-4.222;2023-05-14T00:30:38;5.65;;;4.20;;
44426;SDS011;30133;47.866;-4.222;2023-05-14T00:33:04;6.43;;;4.00;;
44426;SDS011;30133;47.866;-4.222;2023-05-14T00:35:31;7.25;;;4.55;;
44426;SDS011;30133;47.866;-4.222;2023-05-14T00:38:00;6.13;;;4.57;;
44426;SDS011;30133;47.866;-4.222;2023-05-14T00:40:27;6.53;;;4.38;;
44426;SDS011;30133;47.866;-4.222;2023-05-14T00:42:53;6.18;;;4.80;;
44426;SDS011;30133;47.866;-4.222;2023-05-14T00:45:20;5.53;;;3.75;;
44426;SDS011;30133;47.866;-4.222;2023-05-14T00:47:47;5.67;;;4.33;;
44426;SDS011;30133;47.866;-4.222;2023-05-14T00:50:14;6.95;;;4.75;;
44426;SDS011;30133;47.866;-4.222;2023-05-14T00:52:41;7.72;;;4.28;;
44426;SDS011;30133;47.866;-4.222;2023-05-14T00:55:07;5.82;;;4.80;;
44426;SDS011;30133;47.866;-4.222;2023-05-14T00:57:37;6.95;;;4.00;;
44426;SDS011;30133;47.866;-4.222;2023-05-14T01:00:04;5.43;;;4.45;;
44426;SDS011;30133;47.866;-4.222;2023-05-14T01:02:31;5.53;;;4.60;;
44426;SDS011;30133;47.866;-4.222;2023-05-14T01:04:58;6.50;;;4.18;;
44426;SDS011;30133;47.866;-4.222;2023-05-14T01:10:48;6.60;;;4.65;;
44426;SDS011;30133;47.866;-4.222;2023-05-14T01:13:42;8.32;;;4.72;;
44426;SDS011;30133;47.866;-4.222;2023-05-14T01:16:09;5.75;;;4.35;;
44426;SDS011;30133;47.866;-4.222;2023-05-14T01:18:37;6.68;;;4.45;;
44426;SDS011;30133;47.866;-4.222;2023-05-14T01:21:17;6.47;;;4.70;;
44426;SDS011;30133;47.866;-4.222;2023-05-14T01:23:52;7.50;;;4.75;;
44426;SDS011;30133;47.866;-4.222;2023-05-14T01:26:19;6.45;;;4.60;;
44426;SDS011;30133;47.866;-4.222;2023-05-14T01:28:45;7.53;;;4.10;;
44426;SDS011;30133;47.866;-4.222;2023-05-14T01:31:15;5.82;;;4.13;;
44426;SDS011;30133;47.866;-4.222;2023-05-14T01:33:43;4.95;;;4.38;;
44426;SDS011;30133;47.866;-4.222;2023-05-14T01:36:11;7.37;;;4.77;;
44426;SDS011;30133;47.866;-4.222;2023-05-14T01:38:40;7.22;;;5.25;;
44426;SDS011;30133;47.866;-4.222;2023-05-14T01:41:10;6.43;;;4.67;;
44426;SDS011;30133;47.866;-4.222;2023-05-14T01:43:36;7.60;;;4.80;;
44426;SDS011;30133;47.866;-4.222;2023-05-14T01:46:03;8.85;;;5.10;;
44426;SDS011;30133;47.866;-4.222;2023-05-14T01:48:29;6.78;;;4.72;;
44426;SDS011;30133;47.866;-4.222;2023-05-14T01:50:56;6.60;;;4.55;;
44426;SDS011;30133;47.866;-4.222;2023-05-14T01:53:22;5.28;;;4.25;;
44426;SDS011;30133;47.866;-4.222;2023-05-14T01:55:48;6.70;;;4.50;;
44426;SDS011;30133;47.866;-4.222;2023-05-14T01:58:15;7.63;;;4.63;;
44426;SDS011;30133;47.866;-4.222;2023-05-14T02:00:41;6.90;;;4.78;;
44426;SDS011;30133;47.866;-4.222;2023-05-14T02:03:07;7.07;;;4.75;;
44426;SDS011;30133;47.866;-4.222;2023-05-14T02:05:34;5.57;;;4.38;;
44426;SDS011;30133;47.866;-4.222;2023-05-14T02:08:07;6.03;;;4.43;;
44426;SDS011;30133;47.866;-4.222;2023-05-14T02:10:33;6.35;;;5.00;;
44426;SDS011;30133;47.866;-4.222;2023-05-14T02:12:59;7.20;;;4.78;;
44426;SDS011;30133;47.866;-4.222;2023-05-14T02:15:27;10.73;;;5.40;;
44426;SDS011;30133;47.866;-4.222;2023-05-14T02:17:53;6.47;;;4.75;;
44426;SDS011;30133;47.866;-4.222;2023-05-14T02:20:20;6.60;;;4.67;;
44426;SDS011;30133;47.866;-4.222;2023-05-14T02:22:46;7.40;;;5.00;;
44426;SDS011;30133;47.866;-4.222;2023-05-14T02:25:12;5.25;;;4.43;;
44426;SDS011;30133;47.866;-4.222;2023-05-14T02:27:38;6.32;;;5.03;;
44426;SDS011;30133;47.866;-4.222;2023-05-14T02:30:05;9.85;;;4.68;;
44426;SDS011;30133;47.866;-4.222;2023-05-14T02:32:32;7.22;;;5.03;;
44426;SDS011;30133;47.866;-4.222;2023-05-14T02:34:59;6.55;;;4.45;;
44426;SDS011;30133;47.866;-4.222;2023-05-14T02:37:25;6.40;;;4.40;;
44426;SDS011;30133;47.866;-4.222;2023-05-14T02:39:52;5.78;;;4.57;;
44426;SDS011;30133;47.866;-4.222;2023-05-14T02:42:18;5.80;;;4.90;;
44426;SDS011;30133;47.866;-4.222;2023-05-14T02:44:44;6.15;;;4.85;;
44426;SDS011;30133;47.866;-4.222;2023-05-14T02:47:11;5.80;;;4.70;;
44426;SDS011;30133;47.866;-4.222;2023-05-14T02:49:37;6.25;;;4.95;;
44426;SDS011;30133;47.866;-4.222;2023-05-14T02:52:04;6.15;;;4.55;;
44426;SDS011;30133;47.866;-4.222;2023-05-14T02:54:31;7.53;;;4.93;;
44426;SDS011;30133;47.866;-4.222;2023-05-14T02:56:57;7.68;;;5.10;;
44426;SDS011;30133;47.866;-4.222;2023-05-14T02:59:23;7.50;;;4.97;;
44426;SDS011;30133;47.866;-4.222;2023-05-14T03:01:50;7.23;;;5.20;;
44426;SDS011;30133;47.866;-4.222;2023-05-14T03:04:17;6.03;;;4.63;;
44426;SDS011;30133;47.866;-4.222;2023-05-14T03:06:43;7.53;;;5.03;;
44426;SDS011;30133;47.866;-4.222;2023-05-14T03:09:09;7.07;;;4.88;;
44426;SDS011;30133;47.866;-4.222;2023-05-14T03:11:36;6.47;;;4.20;;
44426;SDS011;30133;47.866;-4.222;2023-05-14T03:14:02;7.77;;;4.63;;
44426;SDS011;30133;47.866;-4.222;2023-05-14T03:16:28;5.50;;;4.83;;
44426;SDS011;30133;47.866;-4.222;2023-05-14T03:18:55;6.28;;;4.38;;
44426;SDS011;30133;47.866;-4.222;2023-05-14T03:21:21;6.28;;;4.90;;
44426;SDS011;30133;47.866;-4.222;2023-05-14T03:23:47;5.78;;;4.60;;
44426;SDS011;30133;47.866;-4.222;2023-05-14T03:26:14;5.75;;;4.53;;
44426;SDS011;30133;47.866;-4.222;2023-05-14T03:28:40;7.25;;;5.28;;
44426;SDS011;30133;47.866;-4.222;2023-05-14T03:31:08;6.88;;;4.63;;
44426;SDS011;30133;47.866;-4.222;2023-05-14T03:33:34;8.82;;;4.97;;
44426;SDS011;30133;47.866;-4.222;2023-05-14T03:36:00;6.75;;;5.45;;
44426;SDS011;30133;47.866;-4.222;2023-05-14T03:38:27;6.20;;;4.32;;
44426;SDS011;30133;47.866;-4.222;2023-05-14T03:40:53;5.68;;;4.35;;
44426;SDS011;30133;47.866;-4.222;2023-05-14T03:43:19;7.97;;;5.20;;
44426;SDS011;30133;47.866;-4.222;2023-05-14T03:45:46;5.90;;;5.10;;
44426;SDS011;30133;47.866;-4.222;2023-05-14T03:48:16;6.32;;;5.28;;
44426;SDS011;30133;47.866;-4.222;2023-05-14T03:50:43;6.38;;;4.70;;
44426;SDS011;30133;47.866;-4.222;2023-05-14T03:53:10;5.95;;;4.85;;
44426;SDS011;30133;47.866;-4.222;2023-05-14T03:55:36;6.57;;;4.65;;
44426;SDS011;30133;47.866;-4.222;2023-05-14T03:58:02;5.90;;;4.82;;
44426;SDS011;30133;47.866;-4.222;2023-05-14T04:00:37;6.32;;;4.88;;
44426;SDS011;30133;47.866;-4.222;2023-05-14T04:03:05;6.63;;;4.88;;
44426;SDS011;30133;47.866;-4.222;2023-05-14T04:05:32;7.20;;;5.47;;
44426;SDS011;30133;47.866;-4.222;2023-05-14T04:07:59;5.80;;;4.50;;
44426;SDS011;30133;47.866;-4.222;2023-05-14T04:10:26;8.25;;;5.22;;
44426;SDS011;30133;47.866;-4.222;2023-05-14T04:12:52;7.20;;;4.50;;
44426;SDS011;30133;47.866;-4.222;2023-05-14T04:15:19;9.05;;;4.80;;
44426;SDS011;30133;47.866;-4.222;2023-05-14T04:17:46;6.25;;;5.10;;
44426;SDS011;30133;47.866;-4.222;2023-05-14T04:20:12;6.65;;;4.75;;
44426;SDS011;30133;47.866;-4.222;2023-05-14T04:22:38;8.57;;;5.73;;
44426;SDS011;30133;47.866;-4.222;2023-05-14T04:25:05;5.72;;;4.57;;
44426;SDS011;30133;47.866;-4.222;2023-05-14T04:27:32;6.20;;;5.10;;
44426;SDS011;30133;47.866;-4.222;2023-05-14T04:29:58;7.18;;;5.00;;
44426;SDS011;30133;47.866;-4.222;2023-05-14T04:32:25;5.72;;;4.78;;
44426;SDS011;30133;47.866;-4.222;2023-05-14T04:34:51;6.22;;;4.93;;
44426;SDS011;30133;47.866;-4.222;2023-05-14T04:37:20;9.20;;;5.60;;
44426;SDS011;30133;47.866;-4.222;2023-05-14T04:39:47;6.60;;;4.90;;
44426;SDS011;30133;47.866;-4.222;2023-05-14T04:42:13;6.32;;;4.97;;
44426;SDS011;30133;47.866;-4.222;2023-05-14T04:44:39;5.75;;;4.95;;
44426;SDS011;30133;47.866;-4.222;2023-05-14T04:47:05;8.67;;;5.40;;
44426;SDS011;30133;47.866;-4.222;2023-05-14T04:49:32;5.50;;;4.60;;
44426;SDS011;30133;47.866;-4.222;2023-05-14T04:51:58;5.75;;;4.65;;
44426;SDS011;30133;47.866;-4.222;2023-05-14T04:54:25;7.57;;;5.13;;
44426;SDS011;30133;47.866;-4.222;2023-05-14T04:56:51;7.20;;;5.38;;
44426;SDS011;30133;47.866;-4.222;2023-05-14T04:59:20;6.57;;;5.22;;
44426;SDS011;30133;47.866;-4.222;2023-05-14T05:01:46;8.25;;;5.10;;
44426;SDS011;30133;47.866;-4.222;2023-05-14T05:04:12;6.97;;;5.40;;
44426;SDS011;30133;47.866;-4.222;2023-05-14T05:06:39;7.35;;;5.53;;
44426;SDS011;30133;47.866;-4.222;2023-05-14T05:09:05;8.15;;;5.18;;
44426;SDS011;30133;47.866;-4.222;2023-05-14T05:11:32;6.80;;;4.95;;
44426;SDS011;30133;47.866;-4.222;2023-05-14T05:13:59;5.80;;;5.15;;
44426;SDS011;30133;47.866;-4.222;2023-05-14T05:16:25;6.93;;;4.90;;
44426;SDS011;30133;47.866;-4.222;2023-05-14T05:18:52;7.00;;;5.10;;
44426;SDS011;30133;47.866;-4.222;2023-05-14T05:21:18;5.93;;;4.90;;
44426;SDS011;30133;47.866;-4.222;2023-05-14T05:23:44;9.10;;;5.60;;
44426;SDS011;30133;47.866;-4.222;2023-05-14T05:26:11;7.50;;;5.03;;
44426;SDS011;30133;47.866;-4.222;2023-05-14T05:28:37;7.43;;;4.85;;
44426;SDS011;30133;47.866;-4.222;2023-05-14T05:31:03;7.20;;;5.45;;
44426;SDS011;30133;47.866;-4.222;2023-05-14T05:33:30;7.43;;;4.85;;
44426;SDS011;30133;47.866;-4.222;2023-05-14T05:35:56;6.88;;;5.13;;
44426;SDS011;30133;47.866;-4.222;2023-05-14T05:38:23;5.78;;;5.18;;
44426;SDS011;30133;47.866;-4.222;2023-05-14T05:40:49;6.70;;;5.37;;
44426;SDS011;30133;47.866;-4.222;2023-05-14T05:43:16;7.10;;;5.28;;
44426;SDS011;30133;47.866;-4.222;2023-05-14T05:45:42;8.13;;;5.38;;
44426;SDS011;30133;47.866;-4.222;2023-05-14T05:48:10;6.53;;;4.83;;
44426;SDS011;30133;47.866;-4.222;2023-05-14T05:50:36;8.07;;;5.03;;
44426;SDS011;30133;47.866;-4.222;2023-05-14T05:53:02;6.07;;;4.82;;
44426;SDS011;30133;47.866;-4.222;2023-05-14T05:55:29;6.30;;;5.13;;
44426;SDS011;30133;47.866;-4.222;2023-05-14T05:57:55;5.82;;;4.95;;
44426;SDS011;30133;47.866;-4.222;2023-05-14T06:00:22;6.47;;;4.95;;
44426;SDS011;30133;47.866;-4.222;2023-05-14T06:02:48;7.55;;;5.00;;
44426;SDS011;30133;47.866;-4.222;2023-05-14T06:05:15;6.72;;;4.80;;
44426;SDS011;30133;47.866;-4.222;2023-05-14T06:07:41;6.28;;;4.90;;
44426;SDS011;30133;47.866;-4.222;2023-05-14T06:10:08;6.35;;;4.70;;
44426;SDS011;30133;47.866;-4.222;2023-05-14T06:12:34;7.32;;;5.20;;
44426;SDS011;30133;47.866;-4.222;2023-05-14T06:15:01;7.10;;;5.05;;
44426;SDS011;30133;47.866;-4.222;2023-05-14T06:17:27;7.07;;;4.93;;
44426;SDS011;30133;47.866;-4.222;2023-05-14T06:19:53;6.40;;;4.68;;
44426;SDS011;30133;47.866;-4.222;2023-05-14T06:22:20;7.63;;;5.20;;
44426;SDS011;30133;47.866;-4.222;2023-05-14T06:24:46;6.80;;;4.85;;
44426;SDS011;30133;47.866;-4.222;2023-05-14T06:27:13;6.28;;;4.78;;
44426;SDS011;30133;47.866;-4.222;2023-05-14T06:29:39;5.80;;;4.78;;
44426;SDS011;30133;47.866;-4.222;2023-05-14T06:32:06;5.93;;;4.82;;
44426;SDS011;30133;47.866;-4.222;2023-05-14T06:34:33;6.20;;;4.65;;
44426;SDS011;30133;47.866;-4.222;2023-05-14T06:36:59;6.15;;;4.55;;
44426;SDS011;30133;47.866;-4.222;2023-05-14T06:39:28;6.53;;;4.80;;
44426;SDS011;30133;47.866;-4.222;2023-05-14T06:41:54;5.55;;;4.85;;
44426;SDS011;30133;47.866;-4.222;2023-05-14T06:44:20;5.95;;;4.78;;
44426;SDS011;30133;47.866;-4.222;2023-05-14T06:46:47;5.10;;;4.33;;
44426;SDS011;30133;47.866;-4.222;2023-05-14T06:49:13;6.15;;;4.63;;
44426;SDS011;30133;47.866;-4.222;2023-05-14T06:51:39;6.47;;;4.80;;
44426;SDS011;30133;47.866;-4.222;2023-05-14T06:54:06;6.38;;;4.82;;
44426;SDS011;30133;47.866;-4.222;2023-05-14T06:56:33;6.55;;;4.88;;
44426;SDS011;30133;47.866;-4.222;2023-05-14T06:58:59;6.25;;;5.20;;
44426;SDS011;30133;47.866;-4.222;2023-05-14T07:01:26;6.75;;;4.88;;
44426;SDS011;30133;47.866;-4.222;2023-05-14T07:03:52;7.75;;;4.70;;
44426;SDS011;30133;47.866;-4.222;2023-05-14T07:06:19;5.77;;;4.53;;
44426;SDS011;30133;47.866;-4.222;2023-05-14T07:08:45;5.40;;;4.28;;
44426;SDS011;30133;47.866;-4.222;2023-05-14T07:11:12;6.57;;;4.70;;
44426;SDS011;30133;47.866;-4.222;2023-05-14T07:13:39;6.60;;;4.88;;
44426;SDS011;30133;47.866;-4.222;2023-05-14T07:16:05;7.05;;;4.72;;
44426;SDS011;30133;47.866;-4.222;2023-05-14T07:18:35;7.55;;;5.03;;
44426;SDS011;30133;47.866;-4.222;2023-05-14T07:21:02;6.00;;;4.53;;
44426;SDS011;30133;47.866;-4.222;2023-05-14T07:23:31;5.82;;;4.60;;
44426;SDS011;30133;47.866;-4.222;2023-05-14T07:26:00;5.95;;;4.53;;
44426;SDS011;30133;47.866;-4.222;2023-05-14T07:28:27;5.82;;;4.30;;
44426;SDS011;30133;47.866;-4.222;2023-05-14T07:30:53;6.70;;;4.32;;
44426;SDS011;30133;47.866;-4.222;2023-05-14T07:33:19;5.35;;;4.65;;
44426;SDS011;30133;47.866;-4.222;2023-05-14T07:35:46;5.32;;;4.57;;
44426;SDS011;30133;47.866;-4.222;2023-05-14T07:38:12;5.72;;;4.72;;
44426;SDS011;30133;47.866;-4.222;2023-05-14T07:40:39;5.28;;;4.70;;
44426;SDS011;30133;47.866;-4.222;2023-05-14T07:43:05;6.47;;;4.57;;
44426;SDS011;30133;47.866;-4.222;2023-05-14T07:45:32;5.32;;;4.20;;
44426;SDS011;30133;47.866;-4.222;2023-05-14T07:47:58;4.95;;;3.97;;
44426;SDS011;30133;47.866;-4.222;2023-05-14T07:50:24;4.72;;;4.20;;
44426;SDS011;30133;47.866;-4.222;2023-05-14T07:52:51;7.20;;;4.72;;
44426;SDS011;30133;47.866;-4.222;2023-05-14T07:55:24;6.60;;;4.70;;
44426;SDS011;30133;47.866;-4.222;2023-05-14T07:57:50;5.53;;;4.50;;
44426;SDS011;30133;47.866;-4.222;2023-05-14T08:00:16;6.13;;;4.32;;
44426;SDS011;30133;47.866;-4.222;2023-05-14T08:02:43;5.40;;;4.65;;
44426;SDS011;30133;47.866;-4.222;2023-05-14T08:05:09;6.47;;;4.30;;
44426;SDS011;30133;47.866;-4.222;2023-05-14T08:07:36;5.60;;;4.15;;
44426;SDS011;30133;47.866;-4.222;2023-05-14T08:10:03;5.45;;;4.50;;
44426;SDS011;30133;47.866;-4.222;2023-05-14T08:12:31;5.10;;;4.35;;
44426;SDS011;30133;47.866;-4.222;2023-05-14T08:14:58;4.97;;;4.30;;
44426;SDS011;30133;47.866;-4.222;2023-05-14T08:17:24;6.07;;;4.35;;
44426;SDS011;30133;47.866;-4.222;2023-05-14T08:19:51;5.30;;;4.18;;
44426;SDS011;30133;47.866;-4.222;2023-05-14T08:22:17;6.35;;;4.15;;
44426;SDS011;30133;47.866;-4.222;2023-05-14T08:24:44;5.50;;;4.17;;
44426;SDS011;30133;47.866;-4.222;2023-05-14T08:27:10;5.63;;;4.53;;
44426;SDS011;30133;47.866;-4.222;2023-05-14T08:29:37;6.35;;;4.07;;
44426;SDS011;30133;47.866;-4.222;2023-05-14T08:32:03;4.80;;;4.10;;
44426;SDS011;30133;47.866;-4.222;2023-05-14T08:34:30;5.28;;;4.05;;
44426;SDS011;30133;47.866;-4.222;2023-05-14T08:36:56;4.93;;;4.40;;
44426;SDS011;30133;47.866;-4.222;2023-05-14T08:39:23;4.93;;;4.00;;
44426;SDS011;30133;47.866;-4.222;2023-05-14T08:41:50;4.53;;;3.90;;
44426;SDS011;30133;47.866;-4.222;2023-05-14T08:44:19;4.20;;;3.72;;
44426;SDS011;30133;47.866;-4.222;2023-05-14T08:47:22;5.25;;;4.25;;
44426;SDS011;30133;47.866;-4.222;2023-05-14T08:49:54;3.95;;;3.55;;
44426;SDS011;30133;47.866;-4.222;2023-05-14T08:52:32;5.53;;;3.80;;
44426;SDS011;30133;47.866;-4.222;2023-05-14T08:54:59;4.70;;;3.95;;
44426;SDS011;30133;47.866;-4.222;2023-05-14T08:57:29;4.90;;;4.22;;
44426;SDS011;30133;47.866;-4.222;2023-05-14T08:59:58;4.85;;;4.07;;
44426;SDS011;30133;47.866;-4.222;2023-05-14T09:02:29;4.55;;;3.83;;
44426;SDS011;30133;47.866;-4.222;2023-05-14T09:04:57;4.47;;;3.72;;
44426;SDS011;30133;47.866;-4.222;2023-05-14T09:07:25;4.18;;;3.78;;
44426;SDS011;30133;47.866;-4.222;2023-05-14T09:09:52;4.38;;;3.85;;
44426;SDS011;30133;47.866;-4.222;2023-05-14T09:12:19;6.27;;;3.90;;
44426;SDS011;30133;47.866;-4.222;2023-05-14T09:14:47;4.20;;;3.35;;
44426;SDS011;30133;47.866;-4.222;2023-05-14T09:17:28;5.28;;;4.03;;
44426;SDS011;30133;47.866;-4.222;2023-05-14T09:19:56;4.78;;;3.42;;
44426;SDS011;30133;47.866;-4.222;2023-05-14T09:22:23;5.40;;;3.92;;
44426;SDS011;30133;47.866;-4.222;2023-05-14T09:25:00;5.87;;;3.80;;
44426;SDS011;30133;47.866;-4.222;2023-05-14T09:27:28;4.65;;;3.92;;
44426;SDS011;30133;47.866;-4.222;2023-05-14T09:30:00;4.00;;;3.25;;
44426;SDS011;30133;47.866;-4.222;2023-05-14T09:32:36;4.10;;;3.63;;
44426;SDS011;30133;47.866;-4.222;2023-05-14T09:35:19;4.97;;;3.22;;
44426;SDS011;30133;47.866;-4.222;2023-05-14T09:37:47;4.93;;;3.67;;
44426;SDS011;30133;47.866;-4.222;2023-05-14T09:40:15;5.68;;;3.80;;
44426;SDS011;30133;47.866;-4.222;2023-05-14T09:42:42;5.07;;;4.07;;
44426;SDS011;30133;47.866;-4.222;2023-05-14T09:45:09;4.57;;;3.90;;
44426;SDS011;30133;47.866;-4.222;2023-05-14T09:47:36;5.07;;;3.78;;
44426;SDS011;30133;47.866;-4.222;2023-05-14T09:50:03;4.55;;;3.60;;
44426;SDS011;30133;47.866;-4.222;2023-05-14T09:52:31;5.60;;;3.97;;
44426;SDS011;30133;47.866;-4.222;2023-05-14T09:54:58;4.63;;;3.60;;
44426;SDS011;30133;47.866;-4.222;2023-05-14T09:57:25;4.67;;;3.60;;
44426;SDS011;30133;47.866;-4.222;2023-05-14T09:59:51;3.58;;;3.10;;
44426;SDS011;30133;47.866;-4.222;2023-05-14T10:02:22;5.13;;;4.10;;
44426;SDS011;30133;47.866;-4.222;2023-05-14T10:05:01;4.20;;;3.67;;
44426;SDS011;30133;47.866;-4.222;2023-05-14T10:07:41;4.43;;;3.53;;
44426;SDS011;30133;47.866;-4.222;2023-05-14T10:10:14;4.20;;;3.40;;
44426;SDS011;30133;47.866;-4.222;2023-05-14T10:12:43;4.53;;;3.70;;
44426;SDS011;30133;47.866;-4.222;2023-05-14T10:15:23;6.65;;;3.83;;
44426;SDS011;30133;47.866;-4.222;2023-05-14T10:17:59;4.45;;;3.33;;
44426;SDS011;30133;47.866;-4.222;2023-05-14T10:20:30;3.67;;;3.07;;
44426;SDS011;30133;47.866;-4.222;2023-05-14T10:23:01;3.80;;;3.35;;
44426;SDS011;30133;47.866;-4.222;2023-05-14T10:25:27;3.78;;;3.30;;
44426;SDS011;30133;47.866;-4.222;2023-05-14T10:27:54;4.97;;;3.47;;
44426;SDS011;30133;47.866;-4.222;2023-05-14T10:30:20;4.60;;;3.85;;
44426;SDS011;30133;47.866;-4.222;2023-05-14T10:32:47;4.17;;;3.40;;
44426;SDS011;30133;47.866;-4.222;2023-05-14T10:35:17;4.18;;;3.30;;
44426;SDS011;30133;47.866;-4.222;2023-05-14T10:37:46;4.35;;;3.38;;
44426;SDS011;30133;47.866;-4.222;2023-05-14T10:40:16;4.00;;;3.17;;
44426;SDS011;30133;47.866;-4.222;2023-05-14T10:42:45;4.27;;;3.10;;
44426;SDS011;30133;47.866;-4.222;2023-05-14T10:45:12;3.97;;;3.40;;
44426;SDS011;30133;47.866;-4.222;2023-05-14T10:47:40;5.80;;;3.47;;
44426;SDS011;30133;47.866;-4.222;2023-05-14T10:50:08;4.95;;;3.47;;
44426;SDS011;30133;47.866;-4.222;2023-05-14T10:52:36;4.57;;;3.20;;
44426;SDS011;30133;47.866;-4.222;2023-05-14T10:55:05;4.43;;;3.40;;
44426;SDS011;30133;47.866;-4.222;2023-05-14T10:57:33;3.90;;;3.50;;
44426;SDS011;30133;47.866;-4.222;2023-05-14T11:00:00;4.65;;;3.40;;
44426;SDS011;30133;47.866;-4.222;2023-05-14T11:02:28;4.00;;;3.20;;
44426;SDS011;30133;47.866;-4.222;2023-05-14T11:10:20;4.47;;;3.45;;
44426;SDS011;30133;47.866;-4.222;2023-05-14T11:12:48;4.25;;;3.60;;
44426;SDS011;30133;47.866;-4.222;2023-05-14T11:15:16;4.38;;;3.38;;
44426;SDS011;30133;47.866;-4.222;2023-05-14T11:17:44;4.43;;;3.80;;
44426;SDS011;30133;47.866;-4.222;2023-05-14T11:20:11;4.20;;;3.60;;
44426;SDS011;30133;47.866;-4.222;2023-05-14T11:22:39;4.03;;;3.33;;
44426;SDS011;30133;47.866;-4.222;2023-05-14T11:25:06;5.63;;;3.07;;
44426;SDS011;30133;47.866;-4.222;2023-05-14T11:27:33;4.75;;;3.50;;
44426;SDS011;30133;47.866;-4.222;2023-05-14T11:30:03;3.55;;;3.25;;
44426;SDS011;30133;47.866;-4.222;2023-05-14T11:32:36;5.50;;;3.58;;
44426;SDS011;30133;47.866;-4.222;2023-05-14T11:35:02;5.57;;;3.88;;
44426;SDS011;30133;47.866;-4.222;2023-05-14T11:37:29;3.90;;;3.50;;
44426;SDS011;30133;47.866;-4.222;2023-05-14T11:39:58;3.83;;;3.20;;
44426;SDS011;30133;47.866;-4.222;2023-05-14T11:42:25;4.30;;;3.55;;
44426;SDS011;30133;47.866;-4.222;2023-05-14T11:44:51;3.97;;;3.40;;
44426;SDS011;30133;47.866;-4.222;2023-05-14T11:47:18;4.47;;;3.47;;
44426;SDS011;30133;47.866;-4.222;2023-05-14T11:49:45;5.47;;;3.70;;
44426;SDS011;30133;47.866;-4.222;2023-05-14T11:52:13;4.25;;;3.40;;
44426;SDS011;30133;47.866;-4.222;2023-05-14T11:54:41;4.60;;;3.83;;
44426;SDS011;30133;47.866;-4.222;2023-05-14T11:57:12;3.83;;;3.33;;
44426;SDS011;30133;47.866;-4.222;2023-05-14T11:59:43;3.90;;;3.50;;
44426;SDS011;30133;47.866;-4.222;2023-05-14T12:02:11;4.22;;;3.65;;
44426;SDS011;30133;47.866;-4.222;2023-05-14T12:04:39;4.20;;;3.72;;
44426;SDS011;30133;47.866;-4.222;2023-05-14T12:07:07;4.40;;;3.45;;
44426;SDS011;30133;47.866;-4.222;2023-05-14T12:09:40;3.50;;;3.20;;
44426;SDS011;30133;47.866;-4.222;2023-05-14T12:12:15;3.65;;;3.22;;
44426;SDS011;30133;47.866;-4.222;2023-05-14T12:14:42;3.55;;;3.20;;
44426;SDS011;30133;47.866;-4.222;2023-05-14T12:19:43;4.00;;;3.33;;
44426;SDS011;30133;47.866;-4.222;2023-05-14T12:22:12;3.80;;;3.33;;
44426;SDS011;30133;47.866;-4.222;2023-05-14T12:24:42;4.03;;;3.63;;
44426;SDS011;30133;47.866;-4.222;2023-05-14T12:27:09;3.87;;;3.37;;
44426;SDS011;30133;47.866;-4.222;2023-05-14T12:29:39;4.45;;;3.30;;
44426;SDS011;30133;47.866;-4.222;2023-05-14T12:32:08;3.47;;;3.17;;
44426;SDS011;30133;47.866;-4.222;2023-05-14T12:34:35;4.35;;;3.55;;
44426;SDS011;30133;47.866;-4.222;2023-05-14T12:37:03;3.80;;;3.20;;
44426;SDS011;30133;47.866;-4.222;2023-05-14T12:39:31;4.70;;;3.33;;
44426;SDS011;30133;47.866;-4.222;2023-05-14T12:41:58;4.55;;;3.30;;
44426;SDS011;30133;47.866;-4.222;2023-05-14T12:44:25;3.58;;;3.28;;
44426;SDS011;30133;47.866;-4.222;2023-05-14T12:48:01;3.88;;;3.40;;
44426;SDS011;30133;47.866;-4.222;2023-05-14T12:50:34;4.53;;;3.60;;
44426;SDS011;30133;47.866;-4.222;2023-05-14T12:53:00;4.03;;;3.63;;
44426;SDS011;30133;47.866;-4.222;2023-05-14T12:55:27;7.15;;;3.78;;
44426;SDS011;30133;47.866;-4.222;2023-05-14T12:57:53;6.78;;;3.78;;
44426;SDS011;30133;47.866;-4.222;2023-05-14T13:00:20;5.35;;;3.58;;
44426;SDS011;30133;47.866;-4.222;2023-05-14T13:02:46;4.35;;;3.40;;
44426;SDS011;30133;47.866;-4.222;2023-05-14T13:05:12;4.00;;;3.50;;
44426;SDS011;30133;47.866;-4.222;2023-05-14T13:07:39;5.00;;;3.80;;
44426;SDS011;30133;47.866;-4.222;2023-05-14T13:10:08;4.47;;;3.70;;
44426;SDS011;30133;47.866;-4.222;2023-05-14T13:12:35;8.00;;;3.78;;
44426;SDS011;30133;47.866;-4.222;2023-05-14T13:15:02;6.13;;;4.03;;
44426;SDS011;30133;47.866;-4.222;2023-05-14T13:17:29;5.13;;;3.30;;
44426;SDS011;30133;47.866;-4.222;2023-05-14T13:19:55;5.82;;;3.78;;
44426;SDS011;30133;47.866;-4.222;2023-05-14T13:22:22;5.60;;;3.70;;
44426;SDS011;30133;47.866;-4.222;2023-05-14T13:24:48;5.50;;;3.80;;
44426;SDS011;30133;47.866;-4.222;2023-05-14T13:27:14;4.28;;;3.60;;
44426;SDS011;30133;47.866;-4.222;2023-05-14T13:29:41;3.95;;;3.45;;
44426;SDS011;30133;47.866;-4.222;2023-05-14T13:32:07;4.85;;;3.80;;
44426;SDS011;30133;47.866;-4.222;2023-05-14T13:34:34;4.80;;;3.83;;
44426;SDS011;30133;47.866;-4.222;2023-05-14T13:37:00;3.78;;;3.47;;
44426;SDS011;30133;47.866;-4.222;2023-05-14T13:39:26;4.32;;;3.40;;
44426;SDS011;30133;47.866;-4.222;2023-05-14T13:41:53;6.30;;;3.70;;
44426;SDS011;30133;47.866;-4.222;2023-05-14T13:44:20;4.30;;;3.60;;
44426;SDS011;30133;47.866;-4.222;2023-05-14T13:46:47;5.50;;;3.38;;
44426;SDS011;30133;47.866;-4.222;2023-05-14T13:49:13;5.07;;;3.63;;
44426;SDS011;30133;47.866;-4.222;2023-05-14T13:51:40;4.38;;;3.47;;
44426;SDS011;30133;47.866;-4.222;2023-05-14T13:54:06;4.55;;;3.88;;
44426;SDS011;30133;47.866;-4.222;2023-05-14T13:56:33;4.35;;;3.50;;
44426;SDS011;30133;47.866;-4.222;2023-05-14T13:58:59;5.20;;;3.45;;
44426;SDS011;30133;47.866;-4.222;2023-05-14T14:01:25;4.83;;;3.83;;
44426;SDS011;30133;47.866;-4.222;2023-05-14T14:03:57;4.55;;;3.40;;
44426;SDS011;30133;47.866;-4.222;2023-05-14T14:06:24;4.30;;;3.72;;
44426;SDS011;30133;47.866;-4.222;2023-05-14T14:08:54;4.78;;;3.47;;
44426;SDS011;30133;47.866;-4.222;2023-05-14T14:11:21;4.32;;;3.70;;
44426;SDS011;30133;47.866;-4.222;2023-05-14T14:13:47;4.55;;;3.78;;
44426;SDS011;30133;47.866;-4.222;2023-05-14T14:16:14;4.45;;;3.72;;
44426;SDS011;30133;47.866;-4.222;2023-05-14T14:18:40;4.68;;;3.70;;
44426;SDS011;30133;47.866;-4.222;2023-05-14T14:21:07;3.90;;;3.33;;
44426;SDS011;30133;47.866;-4.222;2023-05-14T14:23:33;4.47;;;3.83;;
44426;SDS011;30133;47.866;-4.222;2023-05-14T14:26:00;4.15;;;3.75;;
44426;SDS011;30133;47.866;-4.222;2023-05-14T14:28:26;4.45;;;3.47;;
44426;SDS011;30133;47.866;-4.222;2023-05-14T14:30:53;4.45;;;3.78;;
44426;SDS011;30133;47.866;-4.222;2023-05-14T14:33:19;4.53;;;3.75;;
44426;SDS011;30133;47.866;-4.222;2023-05-14T14:35:46;4.55;;;3.58;;
44426;SDS011;30133;47.866;-4.222;2023-05-14T14:38:12;4.13;;;3.58;;
44426;SDS011;30133;47.866;-4.222;2023-05-14T14:40:41;5.70;;;4.03;;
44426;SDS011;30133;47.866;-4.222;2023-05-14T14:43:07;4.35;;;3.47;;
44426;SDS011;30133;47.866;-4.222;2023-05-14T14:45:34;6.07;;;3.40;;
44426;SDS011;30133;47.866;-4.222;2023-05-14T14:50:48;4.95;;;3.63;;